createdAt,value
2019-04-23T00:02:21.494Z,52.83
2019-04-23T00:04:55.588Z,63.25
2019-04-23T00:07:44.487Z,55.13
2019-04-23T00:10:03.562Z,52.53
2019-04-23T00:12:45.231Z,62.17
2019-04-23T00:17:42.658Z,67.03
2019-04-23T00:20:14.690Z,64.97
2019-04-23T00:22:53.287Z,60.08
2019-04-23T00:25:45.020Z,65.70
2019-04-23T00:28:14.163Z,64.60
2019-04-23T00:33:31.425Z,79.53
2019-04-23T00:35:59.689Z,76.83
2019-04-23T00:38:33.560Z,87.43
2019-04-23T00:43:43.118Z,78.72
2019-04-23T00:48:51.855Z,76.40
2019-04-23T00:53:51.417Z,69.32
2019-04-23T00:56:38.703Z,69.82
2019-04-23T00:59:01.416Z,74.10
2019-04-23T01:01:44.458Z,65.40
2019-04-23T01:06:46.051Z,74.75
2019-04-23T01:09:15.272Z,70.00
2019-04-23T01:11:48.199Z,71.10
2019-04-23T01:14:20.239Z,72.45
2019-04-23T01:16:55.057Z,92.10
2019-04-23T01:21:49.362Z,76.72
2019-04-23T01:24:34.422Z,87.53
2019-04-23T01:30:15.911Z,83.65
2019-04-23T01:32:44.030Z,80.15
2019-04-23T01:37:46.538Z,85.55
2019-04-23T01:40:26.023Z,80.43
2019-04-23T01:42:58.708Z,86.10
2019-04-23T01:45:48.130Z,95.95
2019-04-23T01:48:09.577Z,87.40
2019-04-23T01:50:48.328Z,83.60
2019-04-23T01:53:24.709Z,88.40
2019-04-23T01:55:52.705Z,84.62
2019-04-23T01:58:40.300Z,76.77
2019-04-23T02:01:00.738Z,82.90
2019-04-23T02:03:34.704Z,77.47
2019-04-23T02:06:11.716Z,78.73
2019-04-23T02:08:44.632Z,82.22
2019-04-23T02:11:28.164Z,79.33
2019-04-23T02:16:21.693Z,94.62
2019-04-23T02:21:26.013Z,85.40
2019-04-23T02:23:57.301Z,88.67
2019-04-23T02:26:33.895Z,86.35
2019-04-23T02:34:31.348Z,91.15
2019-04-23T02:39:32.740Z,99.97
2019-04-23T02:47:23.119Z,102.02
2019-04-23T02:52:21.371Z,96.67
2019-04-23T02:57:18.680Z,84.20
2019-04-23T03:02:47.844Z,90.38
2019-04-23T03:05:00.870Z,87.73
2019-04-23T03:07:45.624Z,98.70
2019-04-23T03:13:10.230Z,98.70
2019-04-23T03:15:52.679Z,97.25
2019-04-23T03:23:44.261Z,99.42
2019-04-23T03:26:36.856Z,91.45
2019-04-23T03:29:06.513Z,100.40
2019-04-23T03:34:45.432Z,84.58
2019-04-23T03:37:14.364Z,111.97
2019-04-23T03:39:05.838Z,105.40
2019-04-23T03:41:48.271Z,106.75
2019-04-23T03:44:27.058Z,90.80
2019-04-23T03:46:51.410Z,91.77
2019-04-23T03:49:32.783Z,94.75
2019-04-23T03:54:42.153Z,97.35
2019-04-23T03:57:24.583Z,97.33
2019-04-23T03:59:51.961Z,97.33
2019-04-23T04:02:36.517Z,90.50
2019-04-23T04:04:44.532Z,101.15
2019-04-23T04:10:07.828Z,96.80
2019-04-23T04:12:39.663Z,103.37
2019-04-23T04:15:06.174Z,108.30
2019-04-23T04:18:14.018Z,102.12
2019-04-23T04:20:19.758Z,90.40
2019-04-23T04:25:30.703Z,104.63
2019-04-23T04:28:12.374Z,92.10
2019-04-23T04:30:33.769Z,99.67
2019-04-23T04:33:09.798Z,95.72
2019-04-23T04:40:42.184Z,83.90
2019-04-23T04:46:10.015Z,75.70
2019-04-23T04:48:22.987Z,76.95
2019-04-23T04:51:00.731Z,78.37
2019-04-23T04:53:46.705Z,75.75
2019-04-23T04:58:46.709Z,73.02
2019-04-23T05:01:13.827Z,76.53
2019-04-23T05:03:57.901Z,72.55
2019-04-23T05:08:54.405Z,89.58
2019-04-23T05:11:34.990Z,134.85
2019-04-23T05:16:29.453Z,105.85
2019-04-23T05:21:46.615Z,82.57
2019-04-23T05:24:15.033Z,74.90
2019-04-23T05:26:37.598Z,80.15
2019-04-23T05:29:14.973Z,78.80
2019-04-23T05:31:56.050Z,65.62
2019-04-23T05:34:38.081Z,65.60
2019-04-23T05:37:07.108Z,68.00
2019-04-23T05:42:10.629Z,77.40
2019-04-23T05:44:52.539Z,67.20
2019-04-23T05:47:21.703Z,77.43
2019-04-23T05:49:52.026Z,74.55
2019-04-23T05:52:34.365Z,76.85
2019-04-23T05:55:01.686Z,74.13
2019-04-23T05:57:42.741Z,63.48
2019-04-23T06:00:19.339Z,56.40
2019-04-23T06:02:59.225Z,56.88
2019-04-23T06:05:30.501Z,57.90
2019-04-23T06:08:09.534Z,55.90
2019-04-23T06:10:40.693Z,44.85
2019-04-23T06:13:13.694Z,44.18
2019-04-23T06:15:58.150Z,44.15
2019-04-23T06:23:30.451Z,44.90
2019-04-23T06:26:15.500Z,45.00
2019-04-23T06:28:31.551Z,45.43
2019-04-23T06:31:09.738Z,51.37
2019-04-23T06:33:41.802Z,97.90
2019-04-23T06:36:19.518Z,57.60
2019-04-23T06:41:30.590Z,49.73
2019-04-23T06:44:09.199Z,45.70
2019-04-23T06:46:37.379Z,47.33
2019-04-23T06:49:14.455Z,44.18
2019-04-23T06:54:31.524Z,27.77
2019-04-23T06:59:30.765Z,29.95
2019-04-23T07:02:07.989Z,32.33
2019-04-23T07:04:41.010Z,22.73
2019-04-23T07:07:36.571Z,26.93
2019-04-23T07:09:47.127Z,33.28
2019-04-23T07:15:13.264Z,40.98
2019-04-23T07:17:30.990Z,41.42
2019-04-23T07:22:46.871Z,38.28
2019-04-23T07:25:15.922Z,35.77
2019-04-23T07:27:51.112Z,32.83
2019-04-23T07:30:20.913Z,33.92
2019-04-23T07:32:56.638Z,37.35
2019-04-23T07:35:31.991Z,31.07
2019-04-23T07:41:47.931Z,36.80
2019-04-23T07:44:24.570Z,27.67
2019-04-23T07:47:16.278Z,33.92
2019-04-23T07:49:52.224Z,31.30
2019-04-23T07:52:31.983Z,25.90
2019-04-23T07:54:58.761Z,27.00
2019-04-23T08:00:00.929Z,27.27
2019-04-23T08:02:45.281Z,23.55
2019-04-23T08:05:15.630Z,27.22
2019-04-23T08:07:47.294Z,24.43
2019-04-23T08:10:14.155Z,23.20
2019-04-23T08:12:52.733Z,24.67
2019-04-23T08:15:28.278Z,23.73
2019-04-23T08:17:59.027Z,28.80
2019-04-23T08:20:35.098Z,22.77
2019-04-23T08:23:21.784Z,25.37
2019-04-23T08:28:59.641Z,28.38
2019-04-23T08:31:16.542Z,26.55
2019-04-23T08:36:29.452Z,25.70
2019-04-23T08:38:58.685Z,26.35
2019-04-23T08:41:33.773Z,32.40
2019-04-23T08:47:02.666Z,42.60
2019-04-23T08:49:47.623Z,29.05
2019-04-23T08:54:48.296Z,27.05
2019-04-23T08:57:14.456Z,28.77
2019-04-23T09:02:30.610Z,27.97
2019-04-23T09:05:00.518Z,24.65
2019-04-23T09:07:27.600Z,26.80
2019-04-23T09:10:04.726Z,33.98
2019-04-23T09:12:55.236Z,35.30
2019-04-23T09:15:15.383Z,34.85
2019-04-23T09:17:47.818Z,32.70
2019-04-23T09:20:23.296Z,30.43
2019-04-23T09:22:53.032Z,31.90
2019-04-23T09:25:37.314Z,32.87
2019-04-23T09:27:59.456Z,37.30
2019-04-23T09:30:42.811Z,32.80
2019-04-23T09:33:41.384Z,30.02
2019-04-23T09:36:25.679Z,28.60
2019-04-23T09:39:06.351Z,26.65
2019-04-23T09:41:37.254Z,25.77
2019-04-23T09:44:56.272Z,22.62
2019-04-23T09:47:16.041Z,31.05
2019-04-23T09:49:50.155Z,23.98
2019-04-23T09:57:47.355Z,31.75
2019-04-23T10:00:26.906Z,35.48
2019-04-23T10:02:45.621Z,30.68
2019-04-23T10:05:22.453Z,31.15
2019-04-23T10:07:53.340Z,35.68
2019-04-23T10:10:16.475Z,29.40
2019-04-23T10:12:50.183Z,33.83
2019-04-23T10:15:26.673Z,30.65
2019-04-23T10:17:56.370Z,36.10
2019-04-23T10:20:29.033Z,28.17
2019-04-23T10:23:02.147Z,35.40
2019-04-23T10:25:36.041Z,27.02
2019-04-23T10:28:25.079Z,32.13
2019-04-23T10:30:58.713Z,30.60
2019-04-23T10:33:31.786Z,31.00
2019-04-23T10:36:10.760Z,30.43
2019-04-23T10:38:41.690Z,27.67
2019-04-23T10:41:13.967Z,30.37
2019-04-23T10:43:52.216Z,35.88
2019-04-23T10:46:42.990Z,28.75
2019-04-23T10:52:13.492Z,29.77
2019-04-23T10:54:52.303Z,29.05
2019-04-23T10:57:12.776Z,25.82
2019-04-23T10:59:43.303Z,26.93
2019-04-23T11:07:32.529Z,27.10
2019-04-23T11:10:08.600Z,27.70
2019-04-23T11:12:46.408Z,29.50
2019-04-23T11:15:32.240Z,30.75
2019-04-23T11:18:02.796Z,29.37
2019-04-23T11:23:01.664Z,27.75
2019-04-23T11:28:21.390Z,31.12
2019-04-23T11:31:03.497Z,23.65
2019-04-23T11:33:37.962Z,27.22
2019-04-23T11:36:41.075Z,27.93
2019-04-23T11:38:56.225Z,25.80
2019-04-23T11:41:32.292Z,27.35
2019-04-23T11:43:53.413Z,25.40
2019-04-23T11:49:34.667Z,25.70
2019-04-23T11:59:31.508Z,28.95
2019-04-23T12:02:12.102Z,25.00
2019-04-23T12:05:17.287Z,26.95
2019-04-23T12:07:50.276Z,25.30
2019-04-23T12:13:16.847Z,29.30
2019-04-23T12:15:51.722Z,26.80
2019-04-23T12:18:28.396Z,29.35
2019-04-23T12:21:14.283Z,26.27
2019-04-23T12:26:31.370Z,27.58
2019-04-23T12:28:49.713Z,29.18
2019-04-23T12:31:26.674Z,28.70
2019-04-23T12:34:09.624Z,28.47
2019-04-23T12:39:30.421Z,24.67
2019-04-23T12:42:11.184Z,26.27
2019-04-23T12:44:44.233Z,25.75
2019-04-23T12:47:18.751Z,27.48
2019-04-23T12:52:17.115Z,26.48
2019-04-23T12:54:59.014Z,29.18
2019-04-23T12:57:29.752Z,30.88
2019-04-23T12:59:58.330Z,29.98
2019-04-23T13:02:38.325Z,24.45
2019-04-23T13:05:12.441Z,23.73
2019-04-23T13:10:15.856Z,24.32
2019-04-23T13:20:33.557Z,20.75
2019-04-23T13:25:49.504Z,23.77
2019-04-23T13:28:21.439Z,23.20
2019-04-23T13:30:53.035Z,24.95
2019-04-23T13:38:43.841Z,20.25
2019-04-23T13:41:17.167Z,26.05
2019-04-23T13:46:14.915Z,22.35
2019-04-23T13:48:46.971Z,19.02
2019-04-23T13:51:26.017Z,24.70
2019-04-23T13:54:04.190Z,25.37
2019-04-23T13:57:03.222Z,27.50
2019-04-23T13:59:29.030Z,26.00
2019-04-23T14:01:57.952Z,30.05
2019-04-23T14:07:09.860Z,25.48
2019-04-23T14:09:57.155Z,30.68
2019-04-23T14:12:17.723Z,27.70
2019-04-23T14:15:06.461Z,28.60
2019-04-23T14:17:46.738Z,26.30
2019-04-23T14:20:09.919Z,29.42
2019-04-23T14:25:11.506Z,25.90
2019-04-23T14:28:01.335Z,26.82
2019-04-23T14:30:29.933Z,25.05
2019-04-23T14:33:00.934Z,26.62
2019-04-23T14:38:15.693Z,22.05
2019-04-23T14:40:43.146Z,24.53
2019-04-23T14:43:14.631Z,21.80
2019-04-23T14:46:27.115Z,23.10
2019-04-23T14:48:27.906Z,25.40
2019-04-23T14:51:11.204Z,24.55
2019-04-23T14:53:30.192Z,23.50
2019-04-23T14:56:09.415Z,20.90
2019-04-23T15:11:45.149Z,23.92
2019-04-23T15:17:00.404Z,27.65
2019-04-23T15:22:13.620Z,29.27
2019-04-23T15:24:48.639Z,27.40
2019-04-23T15:29:49.994Z,26.23
2019-04-23T15:32:38.142Z,25.37
2019-04-23T15:35:18.566Z,23.32
2019-04-23T15:45:28.558Z,24.37
2019-04-23T15:48:03.337Z,31.90
2019-04-23T15:50:52.419Z,28.47
2019-04-23T15:55:51.773Z,26.15
2019-04-23T16:00:55.838Z,25.92
2019-04-23T16:02:55.999Z,31.45
2019-04-23T16:05:27.884Z,26.23
2019-04-23T16:08:23.915Z,28.80
2019-04-23T16:11:10.359Z,27.80
2019-04-23T16:13:36.545Z,26.87
2019-04-23T16:16:18.703Z,28.50
2019-04-23T16:19:07.256Z,25.65
2019-04-23T16:21:47.721Z,27.87
2019-04-23T16:24:13.581Z,29.10
2019-04-23T16:26:50.674Z,28.00
2019-04-23T16:31:54.730Z,25.95
2019-04-23T16:34:33.229Z,27.55
2019-04-23T16:37:09.907Z,34.08
2019-04-23T16:39:49.245Z,31.65
2019-04-23T16:45:12.437Z,36.10
2019-04-23T16:52:36.698Z,36.80
2019-04-23T16:55:12.917Z,43.58
2019-04-23T16:57:43.826Z,45.63
2019-04-23T17:00:22.926Z,45.93
2019-04-23T17:03:02.358Z,48.28
2019-04-23T17:05:33.418Z,57.43
2019-04-23T17:08:24.281Z,85.67
2019-04-23T17:10:38.666Z,64.57
2019-04-23T17:15:53.825Z,65.80
2019-04-23T17:18:16.742Z,66.37
2019-04-23T17:20:53.092Z,63.52
2019-04-23T17:23:34.522Z,53.38
2019-04-23T17:26:04.232Z,53.37
2019-04-23T17:28:33.038Z,59.33
2019-04-23T17:31:26.325Z,48.23
2019-04-23T17:39:08.551Z,59.40
2019-04-23T17:42:01.427Z,56.28
2019-04-23T17:47:14.160Z,51.28
2019-04-23T17:49:53.936Z,60.80
2019-04-23T17:52:20.314Z,56.00
2019-04-23T17:54:55.248Z,53.17
2019-04-23T18:02:55.879Z,62.15
2019-04-23T18:05:27.368Z,80.90
2019-04-23T18:10:30.352Z,70.45
2019-04-23T18:12:58.392Z,82.30
2019-04-23T18:15:24.373Z,70.80
2019-04-23T18:20:52.178Z,85.70
2019-04-23T18:23:18.331Z,81.30
2019-04-23T18:26:07.950Z,69.30
2019-04-23T18:28:37.120Z,86.90
2019-04-23T18:31:14.336Z,79.22
2019-04-23T18:36:13.242Z,51.00
2019-04-23T18:38:53.075Z,55.00
2019-04-23T18:41:18.102Z,61.05
2019-04-23T18:44:02.943Z,45.17
2019-04-23T18:46:37.239Z,49.00
2019-04-23T18:49:10.879Z,52.78
2019-04-23T18:51:55.105Z,40.85
2019-04-23T18:54:24.044Z,45.43
2019-04-23T18:59:39.289Z,47.98
2019-04-23T19:02:17.356Z,39.78
2019-04-23T19:05:08.362Z,46.13
2019-04-23T19:07:51.628Z,41.37
2019-04-23T19:10:29.260Z,31.37
2019-04-23T19:12:56.997Z,34.25
2019-04-23T19:18:12.917Z,32.23
2019-04-23T19:21:03.805Z,30.43
2019-04-23T19:23:42.793Z,30.27
2019-04-23T19:26:41.815Z,29.80
2019-04-23T19:31:46.231Z,25.32
2019-04-23T19:44:38.398Z,26.80
2019-04-23T19:47:33.254Z,24.07
2019-04-23T19:52:11.376Z,27.45
2019-04-23T19:57:28.518Z,26.15
2019-04-23T19:59:57.913Z,24.40
2019-04-23T20:02:58.250Z,18.87
2019-04-23T20:05:03.091Z,20.90
2019-04-23T20:07:48.893Z,20.37
2019-04-23T20:10:17.490Z,21.10
2019-04-23T20:12:44.590Z,26.42
2019-04-23T20:15:29.559Z,20.25
2019-04-23T20:17:54.194Z,23.62
2019-04-23T20:20:45.426Z,24.65
2019-04-23T20:23:13.984Z,22.77
2019-04-23T20:26:10.277Z,20.55
2019-04-23T20:28:57.800Z,23.30
2019-04-23T20:34:24.400Z,22.37
2019-04-23T20:36:46.197Z,21.25
2019-04-23T20:39:34.932Z,23.42
2019-04-23T20:42:08.954Z,24.10
2019-04-23T20:49:42.736Z,22.73
2019-04-23T20:57:39.182Z,22.00
2019-04-23T21:00:03.569Z,24.67
2019-04-23T21:03:08.266Z,19.65
2019-04-23T21:05:15.438Z,23.87
2019-04-23T21:15:37.415Z,19.85
2019-04-23T21:20:45.171Z,24.60
2019-04-23T21:23:14.253Z,32.23
2019-04-23T21:25:47.637Z,32.25
2019-04-23T21:28:47.575Z,36.93
2019-04-23T21:31:11.511Z,41.00
2019-04-23T21:36:37.845Z,43.17
2019-04-23T21:42:01.941Z,55.05
2019-04-23T21:47:04.618Z,54.53
2019-04-23T21:49:50.366Z,48.87
2019-04-23T21:54:49.564Z,39.10
2019-04-23T21:57:31.007Z,49.15
2019-04-23T21:59:56.063Z,44.03
2019-04-23T22:02:28.587Z,48.40
2019-04-23T22:05:21.361Z,47.00
2019-04-23T22:07:40.171Z,80.63
2019-04-23T22:10:02.678Z,116.93
2019-04-23T22:12:52.714Z,68.10
2019-04-23T22:15:13.072Z,74.85
2019-04-23T22:25:34.878Z,40.65
2019-04-23T22:27:58.233Z,37.70
2019-04-23T22:30:54.715Z,44.10
2019-04-23T22:33:09.878Z,43.58
2019-04-23T22:35:48.235Z,31.90
2019-04-23T22:38:21.126Z,37.10
2019-04-23T22:40:56.169Z,67.20
2019-04-23T22:46:08.673Z,90.62
2019-04-23T22:48:47.824Z,85.22
2019-04-23T22:53:50.787Z,75.10
2019-04-23T22:56:20.734Z,70.83
2019-04-23T23:01:43.134Z,65.92
2019-04-23T23:04:04.799Z,68.52
2019-04-23T23:06:48.898Z,62.25
2019-04-23T23:09:23.115Z,68.97
2019-04-23T23:16:57.001Z,79.05
2019-04-23T23:24:39.569Z,71.70
2019-04-23T23:27:12.821Z,76.30
2019-04-23T23:29:49.670Z,63.43
2019-04-23T23:32:22.790Z,65.20
2019-04-23T23:35:12.917Z,76.87
2019-04-23T23:37:19.210Z,38.20
2019-04-23T23:40:05.075Z,38.28
2019-04-23T23:42:36.792Z,32.20
2019-04-23T23:45:10.234Z,23.67
2019-04-23T23:47:38.074Z,23.98
2019-04-23T23:50:22.809Z,20.85
2019-04-23T23:53:03.995Z,18.98
2019-04-23T23:58:04.718Z,19.27
